Flight Track Log - Related Links

Times and Time Zones

All times are in EDT time to prevent confusion due to time zone crossing. See the DAL6197 flight status page for this flight to view local times or setup timezone preferences in your user account.

Time Position Orientation Groundspeed Altitude Reporting Facility
EDT Latitude Longitude Course Direction KTS MPH feet Rate Location/Type
Sun 08:52:22 PM 40.6333 -73.8333 217° Southwest 168 193 2,700  Level New York TRACON
Sun 08:53:16 PM 40.6000 -73.8667 217° Southwest 226 260 5,100 2,474 Climbing New York TRACON
Sun 08:54:16 PM 40.5833 -73.7833 105° East 268 308 7,400 2,600 Climbing New York TRACON
Sun 08:55:16 PM 40.6167 -73.6833 66° East 282 325 10,300 2,800 Climbing New York TRACON
Sun 08:56:16 PM 40.6500 -73.6000 62° Northeast 299 344 13,000 2,200 Climbing New York TRACON
Sun 08:57:16 PM 40.7333 -73.5833 North 303 349 14,700 2,000 Climbing New York TRACON
Sun 08:58:16 PM 40.8167 -73.5667 North 321 369 17,000 1,095 Climbing New York TRACON
Sun 08:59:22 PM 40.9333 -73.5667 360° North 366 421 17,000 48 Level New York TRACON
Sun 09:00:22 PM 41.0167 -73.6333 329° Northwest 327 376 17,100 33 Climbing New York TRACON
Sun 09:02:22 PM 41.0833 -73.8833 290° West 341 392 17,100  Level New York TRACON
Sun 09:04:41 PM 41.1458 -74.1739 286° West 381 438 17,100  Level New York Center
Sun 09:05:41 PM 41.1772 -74.3161 286° West 370 426 17,100  Level New York Center
Sun 09:06:41 PM 41.2006 -74.4303 285° West 365 420 17,100  Level New York Center
Sun 09:07:41 PM 41.2317 -74.5728 286° West 365 420 17,100  Level New York Center
Sun 09:08:41 PM 41.2956 -74.6564 315° West 341 392 17,100  Level New York Center
Sun 09:09:41 PM 41.3908 -74.7336 329° Northwest 352 405 17,100  Level New York Center
Sun 09:10:41 PM 41.4761 -74.8025 329° Northwest 365 420 17,100  Level New York Center
Sun 09:12:48 PM 41.6617 -74.9522 329° Northwest 368 423 17,100  Level Boston Center
Sun 09:13:48 PM 41.7375 -75.0136 329° Northwest 360 414 17,100  Level Boston Center
Sun 09:14:48 PM 41.8294 -75.0897 328° Northwest 360 414 17,100  Level Boston Center
Sun 09:15:48 PM 41.9156 -75.1575 330° Northwest 355 409 17,100  Level Boston Center
Sun 09:16:48 PM 41.9992 -75.2283 328° Northwest 355 409 17,100  Level Boston Center
Sun 09:17:48 PM 42.0831 -75.2936 330° Northwest 355 409 17,100 -550 Level Boston Center
Sun 09:18:48 PM 42.1586 -75.3586 327° Northwest 355 409 16,000 -1,400 Descending Boston Center
Sun 09:19:48 PM 42.2381 -75.4242 329° Northwest 349 402 14,300 -1,650 Descending Boston Center
Sun 09:20:48 PM 42.3156 -75.4922 327° Northwest 344 396 12,700 -1,650 Descending Boston Center
Sun 09:21:48 PM 42.3972 -75.5553 330° Northwest 339 390 11,000 -1,030 Descending Boston Center
Sun 09:22:27 PM 42.4561 -75.6117 325° Northwest 336 387 11,000  Level Boston Center
Sun 09:22:48 PM 42.4744 -75.6239 334° Northwest 339 390 11,000  Level Boston Center
Sun 09:23:28 PM 42.5336 -75.6778 326° Northwest 325 374 11,000  Level Boston Center
Sun 09:23:48 PM 42.5519 -75.6900 334° Northwest 339 390 11,000  Level Boston Center
Sun 09:24:29 PM 42.6131 -75.7383 330° Northwest 324 373 11,000 -100 Level Boston Center
Sun 09:24:48 PM 42.6294 -75.7447 344° North 323 372 10,900 -1,100 Descending Boston Center
Sun 09:25:29 PM 42.6786 -75.7786 333° Northwest 249 287 9,900 -1,400 Descending Boston Center
Sun 09:25:48 PM 42.6953 -75.7794 358° North 290 334 9,500 -1,869 Descending Boston Center
Sun 09:26:30 PM 42.7422 -75.8103 334° Northwest 240 276 8,000 -1,900 Descending Boston Center
Sun 09:26:48 PM 42.7608 -75.8197 340° North 264 304 7,600 -1,900 Descending Boston Center
Sun 09:27:30 PM 42.8039 -75.8447 337° Northwest 242 278 6,100 -1,900 Descending Boston Center
Sun 09:27:48 PM 42.8183 -75.8483 350° North 243 280 5,700 -1,869 Descending Boston Center
Sun 09:28:31 PM 42.8675 -75.8794 335° Northwest 239 275 4,200 -1,700 Descending Boston Center
Sun 09:28:48 PM 42.8800 -75.8800 358° North 231 266 4,000 -179 Descending Boston Center
Sun 09:29:38 PM 42.9392 -75.9175 335° Northwest 240 276 4,000 -109 Level Boston Center
Sun 09:30:38 PM 42.9925 -75.9489 337° Northwest 208 239 3,800 -446 Descending Boston Center
Sun 09:31:39 PM 43.0356 -75.9714 339° North 159 183 3,100 -793 Descending Boston Center
Sun 09:32:39 PM 43.0850 -75.9883 346° North 168 193 2,200 -744 Descending Boston Center
Sun 09:33:48 PM 43.1156 -76.0156 327° Northwest 151 174 1,500 -605 Descending Boston Center
Sun 09:34:48 PM 43.1119 -76.0611 264° West 113 130 900 -500 Descending Boston Center
Sun 09:35:48 PM 43.1231 -76.1072 288° West 113 130 500 -250 Descending Boston Center
Sun 09:36:48 PM 43.1136 -76.1350 245° Southwest 90 104 400 -100 Descending Boston Center
Sun 09:38:00 PM 43.1225 -76.1449 124° Southeast  Level FlightAware Approximate
Sun 09:45:00 PM 43.1112 -76.1063 124° Southeast  Level Estimated
Sun 09:46:00 PM 43.1112 -76.1063 124° Southeast  Level Estimated
Sun 09:47:00 PM 43.1112 -76.1063 124° Southeast  Level Estimated
Sun 09:48:00 PM 43.1112 -76.1063 124° Southeast  Level Estimated
Sun 09:49:00 PM 43.1112 -76.1063 124° Southeast  Level Estimated
Sun 09:50:00 PM 43.1112 -76.1063 124° Southeast  Level Estimated

Login

Don't have an account? Register now (free) for customized features, flight alerts, and more!